Time;durP1;ratioP1;P1;durP2;ratioP2;P2;SDS_P1;SDS_P2;PMS_P1;PMS_P2;Temp;Humidity;BMP_temperature;BMP_pressure;BME280_temperature;BME280_humidity;BME280_pressure;Samples;Min_cycle;Max_cycle;Signal;HPM_P1;HPM_P2
2022/03/10 00:02:09;;;;;;;13.53;10.37;;;5.30;76.80;;;;;;4970874;28;20658;-87
2022/03/10 00:04:36;;;;;;;16.60;9.70;;;5.20;73.90;;;;;;4974369;28;20470;-84
2022/03/10 00:07:02;;;;;;;23.53;17.00;;;4.90;74.20;;;;;;4971261;28;20414;-84
2022/03/10 00:09:32;;;;;;;13.52;10.60;;;4.90;74.90;;;;;;4982731;28;20414;-84
2022/03/10 00:11:58;;;;;;;14.13;10.67;;;4.80;66.70;;;;;;4976313;28;20220;-85
2022/03/10 00:14:24;;;;;;;10.95;9.95;;;6.20;71.60;;;;;;4999977;28;20406;-85
2022/03/10 00:16:50;;;;;;;10.10;8.60;;;4.60;72.40;;;;;;4990959;28;20545;-85
2022/03/10 00:19:16;;;;;;;10.20;8.60;;;4.70;73.00;;;;;;4996569;28;20519;-85
2022/03/10 00:21:42;;;;;;;10.17;8.77;;;4.50;76.40;;;;;;4987699;28;20646;-85
2022/03/10 00:24:08;;;;;;;13.53;10.20;;;4.80;79.10;;;;;;4991201;28;20415;-85
2022/03/10 00:26:34;;;;;;;12.40;10.07;;;4.50;81.70;;;;;;4997056;28;20543;-85
2022/03/10 00:28:59;;;;;;;10.03;8.90;;;4.80;82.40;;;;;;4988262;28;20194;-85
2022/03/10 00:31:25;;;;;;;12.30;9.87;;;4.60;89.00;;;;;;4973342;28;20197;-85
2022/03/10 00:33:51;;;;;;;13.37;10.10;;;5.30;82.60;;;;;;4963559;28;20193;-84
2022/03/10 00:36:17;;;;;;;12.27;9.40;;;4.00;80.00;;;;;;4993086;28;20177;-85
2022/03/10 00:38:42;;;;;;;11.50;10.30;;;4.10;90.50;;;;;;5007137;28;20184;-85
2022/03/10 00:41:09;;;;;;;10.77;8.93;;;4.50;81.40;;;;;;4981394;28;20248;-85
2022/03/10 00:43:37;;;;;;;10.40;9.40;;;4.30;82.00;;;;;;4996128;28;20559;-85
2022/03/10 00:46:06;;;;;;;12.80;9.13;;;3.90;84.40;;;;;;4957244;28;20551;-85
2022/03/10 00:48:32;;;;;;;11.13;9.88;;;9.10;92.30;;;;;;4977891;28;20204;-85
2022/03/10 00:50:58;;;;;;;11.30;10.20;;;4.20;86.80;;;;;;4968726;28;20229;-85
2022/03/10 00:53:23;;;;;;;10.70;9.60;;;8.40;93.60;;;;;;4963535;28;20186;-85
2022/03/10 00:55:49;;;;;;;12.80;10.60;;;5.90;93.80;;;;;;4970122;28;20427;-85
2022/03/10 00:58:14;;;;;;;10.23;9.00;;;5.70;92.30;;;;;;4985979;28;20194;-85
2022/03/10 01:00:40;;;;;;;17.33;10.30;;;6.70;93.80;;;;;;4988679;28;20197;-85
2022/03/10 01:03:06;;;;;;;12.20;9.43;;;4.50;95.10;;;;;;4988800;28;20212;-85
2022/03/10 01:05:32;;;;;;;12.10;10.93;;;6.60;94.60;;;;;;4991158;28;20225;-85
2022/03/10 01:07:58;;;;;;;13.65;10.13;;;4.20;91.80;;;;;;4988842;28;20424;-85
2022/03/10 01:10:25;;;;;;;10.83;8.80;;;6.20;94.40;;;;;;4992138;28;20220;-85
2022/03/10 01:12:51;;;;;;;10.55;9.52;;;4.10;91.60;;;;;;4988382;28;21091;-85
2022/03/10 01:15:25;;;;;;;10.05;8.95;;;4.00;91.50;;;;;;4992843;28;20694;-85
2022/03/10 01:17:51;;;;;;;13.35;10.23;;;2.70;92.40;;;;;;4950447;28;20593;-85
2022/03/10 01:20:22;;;;;;;11.90;9.55;;;3.60;93.30;;;;;;4974016;28;20589;-85
2022/03/10 01:22:48;;;;;;;14.80;10.77;;;8.40;96.90;;;;;;5006266;28;20619;-85
2022/03/10 01:25:14;;;;;;;13.02;10.55;;;4.20;94.90;;;;;;4970900;28;20297;-85
2022/03/10 01:27:40;;;;;;;13.90;9.35;;;3.80;96.50;;;;;;4979432;28;20609;-86
2022/03/10 01:30:08;;;;;;;12.90;9.77;;;3.70;95.40;;;;;;4996908;28;20215;-85
2022/03/10 01:32:34;;;;;;;13.77;10.93;;;3.80;96.00;;;;;;4996745;28;20600;-85
2022/03/10 01:35:01;;;;;;;18.03;10.53;;;3.80;95.70;;;;;;5001398;28;20193;-86
2022/03/10 01:37:27;;;;;;;13.65;9.50;;;3.70;95.60;;;;;;4995314;28;20403;-85
2022/03/10 01:39:53;;;;;;;13.30;10.85;;;3.60;95.70;;;;;;4970862;28;20193;-85
2022/03/10 01:42:18;;;;;;;14.30;11.03;;;4.00;97.50;;;;;;4973167;28;20195;-84
2022/03/10 01:44:44;;;;;;;11.80;10.13;;;3.50;97.70;;;;;;4984763;28;20204;-84
2022/03/10 01:47:10;;;;;;;15.30;9.23;;;3.40;98.20;;;;;;4983996;28;20205;-85
2022/03/10 01:49:37;;;;;;;15.25;10.60;;;2.90;98.30;;;;;;4978534;28;20220;-85
2022/03/10 01:52:03;;;;;;;13.95;10.52;;;3.60;99.10;;;;;;4960840;28;20182;-85
2022/03/10 01:54:30;;;;;;;13.70;10.38;;;3.40;98.80;;;;;;4974061;28;20201;-85
2022/03/10 01:56:56;;;;;;;10.27;8.77;;;3.20;99.10;;;;;;4976243;28;20192;-85
2022/03/10 01:59:23;;;;;;;11.68;9.95;;;3.20;98.50;;;;;;5003605;28;20271;-85
2022/03/10 02:01:48;;;;;;;13.10;10.18;;;3.10;98.30;;;;;;4977208;28;20272;-85
2022/03/10 02:04:14;;;;;;;14.27;10.77;;;3.00;99.20;;;;;;4980124;28;20208;-85
2022/03/10 02:06:39;;;;;;;18.43;10.10;;;3.00;99.80;;;;;;4994893;28;20219;-85
2022/03/10 02:11:51;;;;;;;16.23;10.20;;;2.80;99.90;;;;;;4986709;28;20193;-85
2022/03/10 02:17:20;;;;;;;12.88;10.60;;;2.80;99.90;;;;;;4991989;28;20201;-85
2022/03/10 02:19:51;;;;;;;15.15;9.50;;;3.20;99.90;;;;;;4993994;28;20823;-85
2022/03/10 02:22:19;;;;;;;12.30;9.97;;;2.90;99.90;;;;;;4980191;28;20277;-84
2022/03/10 02:24:45;;;;;;;12.23;10.75;;;2.80;99.90;;;;;;4994847;28;20445;-85
2022/03/10 02:27:21;;;;;;;15.07;11.15;;;2.90;99.90;;;;;;4971152;28;20213;-85
2022/03/10 02:29:59;;;;;;;18.88;11.43;;;2.80;99.90;;;;;;4971417;28;20261;-85
2022/03/10 02:32:25;;;;;;;16.83;11.20;;;2.70;99.90;;;;;;4986708;28;20192;-85
2022/03/10 02:34:51;;;;;;;12.43;9.98;;;2.70;99.90;;;;;;4984965;28;20218;-85
2022/03/10 02:37:17;;;;;;;18.43;11.13;;;2.60;99.90;;;;;;4984044;28;20696;-85
2022/03/10 02:39:44;;;;;;;13.02;10.82;;;3.50;99.90;;;;;;4978764;28;20201;-84
2022/03/10 02:42:10;;;;;;;14.93;11.13;;;2.80;99.90;;;;;;4966035;28;20652;-85
2022/03/10 02:44:43;;;;;;;14.98;11.20;;;2.70;99.90;;;;;;4993824;28;20196;-85
2022/03/10 02:47:09;;;;;;;16.95;11.05;;;5.00;99.90;;;;;;4993469;28;20188;-85
2022/03/10 02:49:35;;;;;;;16.10;10.80;;;2.90;99.90;;;;;;5003078;28;20231;-85
2022/03/10 02:52:03;;;;;;;14.35;11.45;;;2.60;99.90;;;;;;4988864;28;20428;-85
2022/03/10 02:54:29;;;;;;;16.35;12.23;;;2.80;99.90;;;;;;4981135;28;20193;-85
2022/03/10 02:56:55;;;;;;;15.27;12.77;;;3.60;99.90;;;;;;5009350;28;20171;-85
2022/03/10 02:59:20;;;;;;;14.53;11.60;;;5.20;99.90;;;;;;4989584;28;20725;-84
2022/03/10 03:01:46;;;;;;;18.03;12.07;;;4.80;99.90;;;;;;4971315;28;20181;-85
2022/03/10 03:04:12;;;;;;;13.47;10.80;;;2.60;99.90;;;;;;4995425;28;20192;-85
2022/03/10 03:06:37;;;;;;;13.50;11.60;;;4.40;99.90;;;;;;4964101;28;20208;-85
2022/03/10 03:09:03;;;;;;;19.20;13.27;;;5.40;99.90;;;;;;4993657;28;20659;-84
2022/03/10 03:11:29;;;;;;;16.03;12.67;;;5.00;99.90;;;;;;5000407;28;20259;-85
2022/03/10 03:13:56;;;;;;;16.93;12.27;;;4.80;99.90;;;;;;4993858;28;20537;-84
2022/03/10 03:16:23;;;;;;;15.17;12.00;;;2.80;99.90;;;;;;5003355;28;20224;-84
2022/03/10 03:18:49;;;;;;;14.77;11.77;;;6.30;99.90;;;;;;4994788;28;20802;-84
2022/03/10 03:21:15;;;;;;;19.00;13.10;;;5.70;99.90;;;;;;4995785;28;20193;-84
2022/03/10 03:23:40;;;;;;;16.83;12.20;;;3.30;99.90;;;;;;4985338;28;20173;-84
2022/03/10 03:26:06;;;;;;;15.07;13.40;;;2.90;99.90;;;;;;4973008;28;20210;-84
2022/03/10 03:28:31;;;;;;;16.17;11.43;;;4.90;99.90;;;;;;4997990;28;20655;-84
2022/03/10 03:30:57;;;;;;;15.17;12.00;;;2.90;99.90;;;;;;4971192;28;20206;-85
2022/03/10 03:33:22;;;;;;;19.70;13.53;;;2.90;99.90;;;;;;4986916;28;20271;-85
2022/03/10 03:35:48;;;;;;;13.63;11.30;;;3.30;99.90;;;;;;4979844;28;20222;-85
2022/03/10 03:38:14;;;;;;;15.43;11.90;;;2.80;99.90;;;;;;4992832;28;20554;-85
2022/03/10 03:40:40;;;;;;;17.93;13.90;;;2.30;99.90;;;;;;4964734;28;20265;-85
2022/03/10 03:43:06;;;;;;;18.38;13.40;;;2.70;99.90;;;;;;5001144;28;20184;-84
2022/03/10 03:45:32;;;;;;;26.13;12.13;;;2.80;99.90;;;;;;4964791;28;20216;-85
2022/03/10 03:47:58;;;;;;;16.30;13.17;;;2.30;99.90;;;;;;4983185;28;20653;-85
2022/03/10 03:50:23;;;;;;;18.03;13.30;;;2.80;99.90;;;;;;4964207;28;20271;-85
2022/03/10 03:52:49;;;;;;;17.77;13.20;;;2.70;99.90;;;;;;4970489;28;20782;-85
2022/03/10 03:55:15;;;;;;;18.33;14.23;;;2.40;99.90;;;;;;4965173;28;20599;-84
2022/03/10 03:57:41;;;;;;;20.92;12.35;;;2.60;99.90;;;;;;4989150;28;20214;-85
2022/03/10 04:00:09;;;;;;;16.00;13.48;;;2.00;99.90;;;;;;4984732;28;20350;-85
2022/03/10 04:02:36;;;;;;;17.48;12.93;;;2.70;99.90;;;;;;4979401;28;20217;-85
2022/03/10 04:05:03;;;;;;;19.15;13.80;;;4.50;99.90;;;;;;4977106;28;20200;-85
2022/03/10 04:07:28;;;;;;;25.08;14.10;;;0.80;99.90;;;;;;4979148;28;20726;-84
2022/03/10 04:09:54;;;;;;;22.63;12.73;;;4.90;99.90;;;;;;4970738;28;20584;-85
2022/03/10 04:12:20;;;;;;;20.10;12.83;;;5.70;99.90;;;;;;4985928;28;20216;-84
2022/03/10 04:14:45;;;;;;;16.97;13.13;;;1.70;99.90;;;;;;4979856;28;20207;-84
2022/03/10 04:17:11;;;;;;;18.70;14.33;;;4.50;99.90;;;;;;4966478;28;20200;-84
2022/03/10 04:19:36;;;;;;;21.27;14.20;;;3.50;99.90;;;;;;4988208;28;20748;-84
2022/03/10 04:22:03;;;;;;;20.17;14.20;;;5.00;99.90;;;;;;4985338;28;20189;-84
2022/03/10 04:24:29;;;;;;;23.75;13.55;;;3.10;99.90;;;;;;4995354;28;20188;-84
2022/03/10 04:26:54;;;;;;;17.47;12.90;;;3.40;99.90;;;;;;4980968;28;20709;-84
2022/03/10 04:30:01;;;;;;;18.23;13.23;;;4.80;99.90;;;;;;5000415;28;20269;-84
2022/03/10 04:32:26;;;;;;;24.63;14.70;;;2.40;99.90;;;;;;4962707;28;20920;-84
2022/03/10 04:34:52;;;;;;;22.80;13.77;;;1.80;99.90;;;;;;4972276;28;20371;-84
2022/03/10 04:37:17;;;;;;;19.17;13.00;;;3.80;99.90;;;;;;5006489;28;20182;-84
2022/03/10 04:39:43;;;;;;;22.00;14.00;;;5.20;99.90;;;;;;4979234;28;20208;-84
2022/03/10 04:42:09;;;;;;;20.40;12.53;;;3.90;99.90;;;;;;4966922;28;20297;-84
2022/03/10 04:44:35;;;;;;;21.42;14.85;;;3.70;99.90;;;;;;4980531;28;20199;-83
2022/03/10 04:47:00;;;;;;;18.67;13.10;;;2.50;99.90;;;;;;4988716;28;20166;-84
2022/03/10 04:49:26;;;;;;;17.83;13.80;;;3.80;99.90;;;;;;5003488;28;20227;-84
2022/03/10 04:51:52;;;;;;;19.55;13.20;;;5.40;99.90;;;;;;4997834;28;20177;-84
2022/03/10 04:54:21;;;;;;;17.75;13.82;;;1.60;99.90;;;;;;4995984;28;20733;-84
2022/03/10 04:56:48;;;;;;;17.10;13.75;;;4.50;99.90;;;;;;4993724;28;20218;-84
2022/03/10 04:59:13;;;;;;;19.95;13.57;;;4.30;99.90;;;;;;5025626;28;20187;-84
2022/03/10 05:01:39;;;;;;;23.43;15.57;;;1.20;99.90;;;;;;4987870;28;20808;-84
2022/03/10 05:04:04;;;;;;;23.07;14.60;;;1.20;99.90;;;;;;5008361;28;20297;-85
2022/03/10 05:06:30;;;;;;;19.67;13.10;;;2.50;99.90;;;;;;5016328;28;20507;-84
2022/03/10 05:08:56;;;;;;;18.73;14.90;;;;;;;;;;5002746;28;20244;-85
2022/03/10 05:11:22;;;;;;;16.63;13.83;;;2.10;99.90;;;;;;5000916;28;20189;-83
2022/03/10 05:13:47;;;;;;;19.90;15.00;;;4.30;99.90;;;;;;5019572;28;20474;-84
2022/03/10 05:16:13;;;;;;;18.33;13.17;;;1.20;99.90;;;;;;4997544;28;20768;-85
2022/03/10 05:18:39;;;;;;;23.17;16.10;;;4.20;99.90;;;;;;5018569;28;20565;-82
2022/03/10 05:21:05;;;;;;;26.47;15.40;;;1.10;99.90;;;;;;5003281;28;20445;-84
2022/03/10 05:23:30;;;;;;;23.30;16.00;;;3.20;99.90;;;;;;5015290;28;20188;-84
2022/03/10 05:25:56;;;;;;;21.40;15.20;;;2.10;99.90;;;;;;4979736;28;20283;-85
2022/03/10 05:28:22;;;;;;;20.63;15.03;;;2.80;99.90;;;;;;5011451;28;20255;-85
2022/03/10 05:30:48;;;;;;;22.00;15.00;;;2.90;99.90;;;;;;4999040;28;20205;-85
2022/03/10 05:33:14;;;;;;;27.85;15.05;;;3.60;99.90;;;;;;5007046;28;20192;-85
2022/03/10 05:35:40;;;;;;;19.47;14.47;;;3.20;99.90;;;;;;4997271;28;20212;-84
2022/03/10 05:38:06;;;;;;;22.15;15.10;;;4.60;99.90;;;;;;5019101;28;20184;-83
2022/03/10 05:40:32;;;;;;;20.33;14.53;;;4.30;99.90;;;;;;5029986;28;20657;-85
2022/03/10 05:42:58;;;;;;;23.17;14.17;;;2.80;99.90;;;;;;4996545;28;20189;-85
2022/03/10 05:45:25;;;;;;;22.23;12.90;;;3.60;99.90;;;;;;5006612;28;20992;-85
2022/03/10 05:47:53;;;;;;;23.20;15.98;;;4.00;99.90;;;;;;5005745;28;20828;-85
2022/03/10 05:50:19;;;;;;;24.67;15.55;;;2.00;99.90;;;;;;4984525;28;20236;-84
2022/03/10 05:52:45;;;;;;;23.35;15.82;;;4.20;99.90;;;;;;5028421;28;20191;-85
2022/03/10 05:55:12;;;;;;;20.60;14.10;;;2.00;99.90;;;;;;5001902;28;20212;-84
2022/03/10 05:57:38;;;;;;;27.98;15.90;;;2.60;99.90;;;;;;5017780;28;20176;-79
2022/03/10 06:00:05;;;;;;;25.80;15.00;;;2.00;99.90;;;;;;5020476;28;20201;-84
2022/03/10 06:02:31;;;;;;;20.98;14.73;;;2.10;99.90;;;;;;5005459;28;20580;-77
2022/03/10 06:05:00;;;;;;;21.03;15.70;;;3.50;99.90;;;;;;5059476;23;20671;-81
2022/03/10 06:07:29;;;;;;;18.75;12.18;;;2.50;99.90;;;;;;4989760;28;20190;-81
2022/03/10 06:09:55;;;;;;;26.08;15.52;;;1.80;99.90;;;;;;5025201;28;20240;-81
2022/03/10 06:12:27;;;;;;;22.33;14.60;;;1.60;99.90;;;;;;5009182;28;20539;-78
2022/03/10 06:14:56;;;;;;;16.88;11.90;;;1.90;99.90;;;;;;5024256;28;20508;-79
2022/03/10 06:17:22;;;;;;;20.52;14.93;;;2.00;99.90;;;;;;5021709;28;20184;-78
2022/03/10 06:19:48;;;;;;;22.50;15.10;;;1.70;99.90;;;;;;5024815;28;20194;-78
2022/03/10 06:22:21;;;;;;;20.65;15.07;;;2.00;99.90;;;;;;5029263;28;20204;-78
2022/03/10 06:24:47;;;;;;;22.13;15.93;;;1.90;99.90;;;;;;5016323;28;20200;-77
2022/03/10 06:27:14;;;;;;;21.20;15.77;;;1.90;99.90;;;;;;5015147;28;20188;-79
2022/03/10 06:29:40;;;;;;;19.65;14.02;;;2.10;99.90;;;;;;5035844;28;20432;-78
2022/03/10 06:32:07;;;;;;;19.25;14.55;;;1.90;99.90;;;;;;5019112;28;20425;-83
2022/03/10 06:34:32;;;;;;;22.05;15.45;;;2.10;99.90;;;;;;5023924;28;20739;-81
2022/03/10 06:36:59;;;;;;;20.40;14.07;;;2.20;99.90;;;;;;5029644;28;20307;-84
2022/03/10 06:39:25;;;;;;;20.67;14.00;;;2.20;99.90;;;;;;4318013;28;10000715;-79
2022/03/10 06:41:50;;;;;;;20.25;13.70;;;2.20;99.90;;;;;;4999926;28;20454;-78
2022/03/10 06:44:16;;;;;;;17.77;13.00;;;2.20;99.90;;;;;;5014861;28;20665;-78
2022/03/10 06:46:42;;;;;;;19.30;14.90;;;3.00;99.90;;;;;;5026973;28;20228;-78
2022/03/10 06:49:07;;;;;;;20.73;15.53;;;1.90;99.90;;;;;;5008001;28;20433;-79
2022/03/10 06:51:33;;;;;;;19.87;14.57;;;2.40;99.90;;;;;;5021815;28;20242;-79
2022/03/10 06:53:59;;;;;;;16.27;12.77;;;2.60;99.90;;;;;;5018452;28;20199;-78
2022/03/10 06:56:25;;;;;;;18.07;13.87;;;2.90;99.90;;;;;;5016783;28;20693;-79
2022/03/10 06:58:51;;;;;;;20.05;13.55;;;3.60;99.90;;;;;;5013854;28;20206;-78
2022/03/10 07:01:17;;;;;;;22.33;14.23;;;4.30;99.90;;;;;;5031698;28;20192;-79
2022/03/10 07:03:42;;;;;;;19.30;14.27;;;5.00;99.90;;;;;;5018986;28;20920;-78
2022/03/10 07:06:08;;;;;;;16.40;12.30;;;5.60;99.90;;;;;;5025856;28;20255;-79
2022/03/10 07:08:34;;;;;;;18.40;13.87;;;7.00;99.90;;;;;;4990067;28;20197;-78
2022/03/10 07:11:00;;;;;;;14.07;12.33;;;7.00;99.90;;;;;;5020633;28;20469;-80
2022/03/10 07:13:25;;;;;;;16.00;13.23;;;7.50;99.90;;;;;;5019540;28;20189;-80
2022/03/10 07:15:51;;;;;;;14.27;12.87;;;7.80;99.60;;;;;;5015097;28;20681;-80
2022/03/10 07:18:17;;;;;;;15.27;13.77;;;8.70;98.50;;;;;;5015086;28;20599;-80
2022/03/10 07:20:42;;;;;;;28.63;14.10;;;9.30;96.30;;;;;;5002892;28;20181;-80
2022/03/10 07:23:13;;;;;;;19.43;12.50;;;10.60;95.00;;;;;;5002639;28;20184;-81
2022/03/10 07:25:41;;;;;;;16.70;14.27;;;10.50;93.60;;;;;;5000785;28;20240;-80
2022/03/10 07:28:07;;;;;;;15.17;13.60;;;10.90;85.50;;;;;;5013351;28;21008;-79
2022/03/10 07:30:33;;;;;;;13.73;12.27;;;11.00;84.10;;;;;;5025344;28;20434;-80
2022/03/10 07:32:58;;;;;;;16.40;14.70;;;11.50;77.00;;;;;;4992020;28;20705;-80
2022/03/10 07:35:24;;;;;;;15.73;14.23;;;12.00;71.30;;;;;;4991573;28;20213;-80
2022/03/10 07:37:51;;;;;;;18.37;14.83;;;12.80;68.90;;;;;;5025178;28;20554;-81
2022/03/10 07:40:17;;;;;;;14.07;12.73;;;12.80;60.80;;;;;;5008031;28;20201;-80
2022/03/10 07:42:42;;;;;;;15.97;13.90;;;13.90;57.20;;;;;;5009698;28;20687;-80
2022/03/10 07:45:09;;;;;;;16.63;13.90;;;13.60;53.90;;;;;;4991052;28;20501;-80
2022/03/10 07:47:35;;;;;;;18.27;15.60;;;13.90;52.50;;;;;;5014807;28;20341;-81
2022/03/10 07:50:02;;;;;;;16.77;14.97;;;14.30;50.80;;;;;;5006290;28;20993;-81
2022/03/10 07:52:27;;;;;;;18.10;14.80;;;14.60;48.80;;;;;;4975543;28;20450;-81
2022/03/10 07:54:53;;;;;;;21.80;15.43;;;14.70;48.20;;;;;;5005544;28;20435;-83
2022/03/10 07:57:19;;;;;;;18.40;15.70;;;14.60;46.90;;;;;;5022378;28;20219;-81
2022/03/10 07:59:44;;;;;;;17.83;15.87;;;14.90;46.70;;;;;;5012392;28;20196;-80
2022/03/10 08:02:10;;;;;;;15.90;14.30;;;15.30;45.40;;;;;;5019839;28;20189;-80
2022/03/10 08:04:35;;;;;;;17.27;15.50;;;15.80;44.80;;;;;;5010198;28;20223;-80
2022/03/10 08:07:01;;;;;;;16.90;15.13;;;16.50;43.20;;;;;;5015454;28;20271;-80
2022/03/10 08:09:27;;;;;;;18.33;15.20;;;16.70;42.00;;;;;;5009295;28;20198;-79
2022/03/10 08:11:52;;;;;;;18.97;17.13;;;17.00;41.50;;;;;;5008171;28;20276;-79
2022/03/10 08:14:18;;;;;;;17.70;15.80;;;17.40;40.10;;;;;;5021223;28;20195;-80
2022/03/10 08:16:44;;;;;;;18.50;16.60;;;17.50;40.10;;;;;;4995262;28;20223;-79
2022/03/10 08:19:09;;;;;;;18.10;15.70;;;17.80;38.90;;;;;;5008927;28;20227;-79
2022/03/10 08:21:35;;;;;;;20.33;15.77;;;18.10;38.30;;;;;;5010790;28;20216;-80
2022/03/10 08:24:01;;;;;;;17.43;15.73;;;18.70;37.20;;;;;;5020773;28;20184;-81
2022/03/10 08:26:26;;;;;;;20.17;15.83;;;19.50;36.40;;;;;;5007338;28;20793;-80
2022/03/10 08:28:53;;;;;;;19.37;17.60;;;19.70;35.00;;;;;;5018171;28;20191;-80
2022/03/10 08:31:19;;;;;;;17.30;15.37;;;20.30;34.50;;;;;;5003379;28;20169;-81
2022/03/10 08:33:46;;;;;;;17.37;15.77;;;20.80;33.00;;;;;;5013650;28;20556;-81
2022/03/10 08:36:12;;;;;;;17.17;15.60;;;21.20;31.80;;;;;;5006694;28;20886;-81
2022/03/10 08:38:38;;;;;;;18.13;15.63;;;21.30;31.60;;;;;;5022985;28;20430;-81
2022/03/10 08:41:04;;;;;;;20.20;16.97;;;21.50;31.80;;;;;;5015156;28;20672;-79
2022/03/10 08:43:31;;;;;;;18.73;16.83;;;21.70;30.40;;;;;;5019086;28;20431;-81
2022/03/10 08:45:57;;;;;;;18.93;16.57;;;21.80;30.00;;;;;;5009023;28;20192;-81
2022/03/10 08:48:24;;;;;;;18.60;15.90;;;21.50;28.70;;;;;;5016652;28;20437;-80
2022/03/10 08:50:49;;;;;;;18.10;16.40;;;22.00;29.40;;;;;;5010740;28;20476;-81
2022/03/10 08:53:15;;;;;;;19.30;17.40;;;22.30;28.50;;;;;;4993701;28;20439;-82
2022/03/10 08:55:41;;;;;;;19.10;17.20;;;23.10;28.50;;;;;;5017702;28;20221;-84
2022/03/10 08:58:06;;;;;;;25.17;18.60;;;23.20;28.00;;;;;;5005763;28;20771;-82
2022/03/10 09:00:33;;;;;;;21.23;19.17;;;23.50;27.90;;;;;;5013621;28;20243;-82
2022/03/10 09:02:58;;;;;;;24.40;19.13;;;23.20;26.90;;;;;;5005988;28;20193;-82
2022/03/10 09:05:24;;;;;;;21.10;18.80;;;22.30;27.30;;;;;;5011415;28;20470;-81
2022/03/10 09:07:50;;;;;;;19.07;17.20;;;21.40;27.20;;;;;;5001774;28;20443;-82
2022/03/10 09:10:16;;;;;;;19.17;17.27;;;22.30;27.00;;;;;;5006585;28;20482;-80
2022/03/10 09:12:42;;;;;;;20.60;18.57;;;22.70;27.10;;;;;;5016678;28;20497;-82
2022/03/10 09:15:09;;;;;;;20.20;17.80;;;23.50;26.30;;;;;;5007130;28;20701;-82
2022/03/10 09:17:36;;;;;;;22.50;19.97;;;22.20;26.40;;;;;;5013778;28;20586;-82
2022/03/10 09:20:05;;;;;;;20.50;18.30;;;23.00;26.50;;;;;;5009069;28;20949;-82
2022/03/10 09:22:31;;;;;;;23.10;18.90;;;23.00;26.30;;;;;;5025831;28;20433;-82
2022/03/10 09:24:56;;;;;;;24.60;22.00;;;23.10;26.30;;;;;;4990829;28;20949;-81
2022/03/10 09:27:22;;;;;;;22.50;19.60;;;23.50;26.10;;;;;;5005717;28;20730;-79
2022/03/10 09:29:47;;;;;;;22.50;20.20;;;23.70;26.00;;;;;;5004437;28;20263;-79
2022/03/10 09:32:17;;;;;;;22.67;20.23;;;23.70;26.00;;;;;;5011254;28;20244;-82
2022/03/10 09:34:43;;;;;;;21.83;19.10;;;23.70;25.90;;;;;;4985553;28;20219;-80
2022/03/10 09:37:08;;;;;;;24.63;20.30;;;24.10;26.20;;;;;;5004607;28;20475;-81
2022/03/10 09:39:34;;;;;;;22.50;20.20;;;23.90;25.60;;;;;;5011773;28;20197;-80
2022/03/10 09:42:03;;;;;;;23.20;20.30;;;22.90;25.20;;;;;;5017779;28;20576;-80
2022/03/10 09:44:32;;;;;;;24.33;20.53;;;22.90;25.50;;;;;;5019711;28;20193;-79
2022/03/10 09:47:03;;;;;;;24.30;21.63;;;22.90;25.70;;;;;;5007701;28;20490;-79
2022/03/10 09:49:33;;;;;;;26.00;20.97;;;23.20;25.70;;;;;;5006167;28;20454;-81
2022/03/10 09:51:59;;;;;;;23.20;19.93;;;23.50;25.80;;;;;;4998427;28;20806;-78
2022/03/10 09:54:25;;;;;;;24.77;19.43;;;23.50;25.50;;;;;;5017797;28;20559;-81
2022/03/10 09:56:51;;;;;;;21.10;18.40;;;23.10;25.60;;;;;;5012692;28;20212;-78
2022/03/10 09:59:20;;;;;;;21.87;19.60;;;23.40;25.90;;;;;;5014609;28;20276;-81
2022/03/10 10:01:46;;;;;;;23.83;21.33;;;24.10;25.30;;;;;;5025562;28;20457;-80
2022/03/10 10:37:10;;;;;;;;;;;;;;;;;;;;;
2022/03/10 10:47:01;;;;;;;21.33;19.13;;;25.10;24.60;;;;;;4814270;29;20572;-85
2022/03/10 10:56:15;;;;;;;20.93;18.83;;;26.20;24.40;;;;;;4910049;28;20467;-79
2022/03/10 10:58:45;;;;;;;19.30;17.53;;;26.20;24.20;;;;;;4994293;28;20521;-79
2022/03/10 11:01:35;;;;;;;20.50;17.67;;;25.70;24.20;;;;;;4986686;28;20416;-77
2022/03/10 11:04:05;;;;;;;19.00;17.10;;;26.00;24.50;;;;;;4982314;28;20495;-79
2022/03/10 11:06:32;;;;;;;19.43;17.60;;;26.40;24.20;;;;;;4985257;28;20515;-75
2022/03/10 11:08:58;;;;;;;19.53;17.33;;;26.40;23.90;;;;;;4990329;28;20444;-78
2022/03/10 11:11:24;;;;;;;19.20;17.20;;;25.40;24.10;;;;;;4986201;28;20432;-77
2022/03/10 11:13:50;;;;;;;21.37;19.10;;;25.20;24.20;;;;;;4987772;28;20443;-81
2022/03/10 11:16:17;;;;;;;23.30;18.17;;;25.00;24.10;;;;;;4985070;28;20452;-79
2022/03/10 11:18:49;;;;;;;20.67;18.50;;;24.70;24.10;;;;;;4989407;28;20525;-78
2022/03/10 11:21:29;;;;;;;19.90;17.97;;;24.20;24.10;;;;;;4979346;28;20915;-80
2022/03/10 11:24:13;;;;;;;19.33;17.60;;;24.20;24.10;;;;;;4973387;28;20489;-78
2022/03/10 11:26:58;;;;;;;18.90;16.83;;;24.20;24.30;;;;;;4967953;28;20511;-80
2022/03/10 11:29:26;;;;;;;20.27;18.13;;;24.30;24.30;;;;;;4634772;28;9999853;-78
2022/03/10 11:31:53;;;;;;;18.63;16.73;;;24.00;24.40;;;;;;4989385;28;20193;-78
2022/03/10 11:34:49;;;;;;;17.67;15.37;;;23.40;24.50;;;;;;4977710;28;20974;-79
2022/03/10 11:37:49;;;;;;;18.60;16.70;;;24.50;24.30;;;;;;4987738;28;20437;-77
2022/03/10 11:40:33;;;;;;;19.60;17.10;;;24.80;24.00;;;;;;4980722;28;20467;-79
2022/03/10 11:43:01;;;;;;;21.07;17.93;;;23.50;24.20;;;;;;4982192;28;20428;-78
2022/03/10 11:45:30;;;;;;;18.80;17.00;;;24.50;24.60;;;;;;4985257;28;20810;-79
2022/03/10 11:48:24;;;;;;;17.37;15.67;;;25.40;24.40;;;;;;4984107;28;20508;-81
2022/03/10 11:50:51;;;;;;;16.83;15.17;;;26.10;24.00;;;;;;4982897;28;20464;-79
2022/03/10 11:53:16;;;;;;;17.50;15.90;;;25.60;23.70;;;;;;4974998;28;20434;-79
2022/03/10 11:55:50;;;;;;;17.47;15.70;;;25.10;23.90;;;;;;4986067;28;20432;-79
2022/03/10 11:58:34;;;;;;;18.67;16.87;;;25.20;24.00;;;;;;4984205;28;20524;-80
2022/03/10 12:01:01;;;;;;;16.93;15.23;;;25.40;24.00;;;;;;4970933;28;20419;-79
2022/03/10 12:03:29;;;;;;;17.37;15.77;;;25.60;23.70;;;;;;4990441;28;20540;-80
2022/03/10 12:06:00;;;;;;;17.77;16.10;;;26.20;23.70;;;;;;4639222;28;10000221;-80
2022/03/10 12:08:36;;;;;;;16.57;14.97;;;26.30;23.30;;;;;;4983415;28;20188;-79
2022/03/10 12:11:04;;;;;;;17.70;15.30;;;25.80;23.30;;;;;;4986930;28;20976;-79
2022/03/10 12:13:32;;;;;;;15.93;14.43;;;25.40;23.40;;;;;;4985147;28;20460;-79
2022/03/10 12:15:59;;;;;;;15.70;14.17;;;25.10;23.50;;;;;;4987272;28;20420;-79
2022/03/10 12:18:30;;;;;;;18.27;14.63;;;25.40;23.60;;;;;;4984041;28;20442;-78
2022/03/10 12:24:09;;;;;;;14.23;12.93;;;26.60;23.50;;;;;;5057294;23;20513;-91
2022/03/10 12:26:45;;;;;;;17.43;15.73;;;26.70;23.40;;;;;;4944384;29;20507;-90
2022/03/10 12:29:13;;;;;;;15.23;13.73;;;26.70;23.70;;;;;;4939136;29;20715;-90
2022/03/10 12:32:11;;;;;;;16.57;14.70;;;26.10;23.50;;;;;;4944893;29;20446;-89
2022/03/10 12:35:22;;;;;;;14.67;13.37;;;25.10;23.30;;;;;;4962237;29;20483;-91
2022/03/10 12:50:45;;;;;;;13.43;12.20;;;25.00;23.10;;;;;;5271257;23;20817;-90
2022/03/10 12:53:45;;;;;;;;;;;;;;;;;;;;;
2022/03/10 12:56:20;;;;;;;11.70;10.60;;;22.00;22.00;;;;;;4908327;29;20517;-91
2022/03/10 12:58:52;;;;;;;12.90;11.90;;;25.40;23.40;;;;;;4942203;29;20415;-90
2022/03/10 13:01:18;;;;;;;11.57;10.30;;;25.70;23.30;;;;;;4968285;23;21106;-81
2022/03/10 13:03:50;;;;;;;11.47;10.37;;;25.50;23.00;;;;;;4961054;28;20473;-79
2022/03/10 13:06:17;;;;;;;11.30;10.40;;;25.50;23.30;;;;;;4947294;29;20465;-78
2022/03/10 13:08:52;;;;;;;11.67;10.60;;;24.50;22.90;;;;;;4946106;29;20434;-78
2022/03/10 13:11:20;;;;;;;10.60;9.70;;;24.50;23.40;;;;;;4948555;29;20421;-78
2022/03/10 13:13:45;;;;;;;11.60;10.47;;;24.40;23.20;;;;;;4928692;29;20513;-78
2022/03/10 13:16:11;;;;;;;11.60;10.17;;;24.40;23.60;;;;;;4930915;29;20905;-78
2022/03/10 13:18:44;;;;;;;11.27;9.47;;;25.10;23.80;;;;;;4947605;29;20823;-77
2022/03/10 13:21:11;;;;;;;10.17;9.37;;;25.20;23.50;;;;;;4930780;29;20359;-78
2022/03/10 13:23:37;;;;;;;10.00;8.97;;;24.90;23.60;;;;;;4941635;28;20434;-77
2022/03/10 13:26:03;;;;;;;13.80;9.70;;;24.30;23.60;;;;;;4947546;29;20474;-81
2022/03/10 13:28:31;;;;;;;9.20;8.60;;;23.30;23.90;;;;;;4948586;28;20430;-80
2022/03/10 13:30:56;;;;;;;9.17;8.47;;;22.90;24.30;;;;;;4949806;28;20508;-80
2022/03/10 13:33:26;;;;;;;9.00;8.30;;;22.40;24.30;;;;;;4945755;28;21064;-81
2022/03/10 13:35:57;;;;;;;8.17;7.47;;;22.20;24.60;;;;;;4936050;28;20186;-79
2022/03/10 13:38:25;;;;;;;7.90;7.30;;;22.70;24.40;;;;;;4955983;28;20430;-80
2022/03/10 13:41:01;;;;;;;7.47;6.93;;;23.40;24.30;;;;;;4933186;29;20477;-83
2022/03/10 13:43:37;;;;;;;8.60;7.80;;;24.50;24.30;;;;;;4945600;28;20449;-82
2022/03/10 13:46:12;;;;;;;8.67;8.10;;;25.00;24.30;;;;;;4952555;28;20516;-81
2022/03/10 13:48:48;;;;;;;7.27;6.87;;;25.30;24.20;;;;;;4942150;28;20853;-81